createdAt,value
2022-08-09T00:00:11.468Z,2.47
2022-08-09T00:02:47.386Z,2.53
2022-08-09T00:06:17.782Z,2.65
2022-08-09T00:08:04.050Z,2.70
2022-08-09T00:10:37.527Z,2.40
2022-08-09T00:13:06.711Z,2.75
2022-08-09T00:15:59.942Z,2.85
2022-08-09T00:18:34.691Z,2.83
2022-08-09T00:21:07.717Z,2.60
2022-08-09T00:23:54.875Z,2.58
2022-08-09T00:26:29.935Z,3.00
2022-08-09T00:29:02.800Z,2.67
2022-08-09T00:31:58.290Z,2.50
2022-08-09T00:34:19.155Z,2.60
2022-08-09T00:36:46.967Z,2.75
2022-08-09T00:40:09.132Z,3.00
2022-08-09T00:44:12.946Z,2.67
2022-08-09T00:44:46.940Z,2.70
2022-08-09T00:47:15.271Z,2.60
2022-08-09T00:49:42.363Z,2.97
2022-08-09T00:52:17.391Z,2.80
2022-08-09T00:54:45.394Z,2.97
2022-08-09T00:57:12.342Z,3.05
2022-08-09T00:59:46.984Z,3.13
2022-08-09T01:02:22.105Z,3.80
2022-08-09T01:05:14.073Z,2.53
2022-08-09T01:08:07.049Z,3.20
2022-08-09T01:10:52.942Z,2.63
2022-08-09T01:13:31.037Z,3.15
2022-08-09T01:16:12.883Z,3.40
2022-08-09T01:18:47.661Z,3.20
2022-08-09T01:21:44.981Z,3.33
2022-08-09T01:24:39.075Z,3.40
2022-08-09T01:27:11.706Z,3.08
2022-08-09T01:29:55.549Z,2.90
2022-08-09T01:32:29.438Z,2.83
2022-08-09T01:35:37.291Z,3.42
2022-08-09T01:38:10.625Z,2.83
2022-08-09T01:40:53.060Z,2.75
2022-08-09T01:43:50.974Z,3.45
2022-08-09T01:46:26.493Z,3.42
2022-08-09T01:49:09.487Z,3.30
2022-08-09T01:51:42.729Z,2.90
2022-08-09T01:54:12.007Z,3.28
2022-08-09T01:56:42.083Z,3.45
2022-08-09T01:59:18.128Z,3.17
2022-08-09T02:02:00.224Z,2.95
2022-08-09T02:04:29.760Z,3.00
2022-08-09T02:08:41.308Z,3.35
2022-08-09T02:10:09.431Z,4.70
2022-08-09T02:12:37.707Z,2.90
2022-08-09T02:15:08.043Z,3.70
2022-08-09T02:18:09.978Z,3.13
2022-08-09T02:20:32.909Z,3.70
2022-08-09T02:23:12.835Z,3.30
2022-08-09T02:25:42.357Z,3.22
2022-08-09T02:28:24.211Z,3.75
2022-08-09T02:30:57.675Z,3.53
2022-08-09T02:33:37.725Z,3.20
2022-08-09T02:36:21.342Z,3.10
2022-08-09T02:38:55.344Z,3.47
2022-08-09T02:41:30.528Z,3.33
2022-08-09T02:44:10.433Z,3.95
2022-08-09T02:46:52.261Z,3.00
2022-08-09T02:49:19.803Z,3.60
2022-08-09T02:51:57.492Z,3.40
2022-08-09T02:54:27.816Z,3.50
2022-08-09T02:57:01.941Z,3.45
2022-08-09T03:00:21.003Z,4.00
2022-08-09T03:02:30.459Z,3.75
2022-08-09T03:05:00.767Z,3.40
2022-08-09T03:07:29.102Z,3.60
2022-08-09T03:10:00.552Z,3.60
2022-08-09T03:12:29.905Z,3.50
2022-08-09T03:14:58.131Z,3.65
2022-08-09T03:17:26.937Z,3.28
2022-08-09T03:20:03.307Z,3.40
2022-08-09T03:22:42.146Z,3.80
2022-08-09T03:25:25.686Z,3.90
2022-08-09T03:28:00.803Z,3.60
2022-08-09T03:30:36.529Z,4.03
2022-08-09T03:33:17.673Z,3.90
2022-08-09T03:36:13.536Z,4.15
2022-08-09T03:38:42.108Z,4.03
2022-08-09T03:41:15.567Z,3.50
2022-08-09T03:44:03.801Z,4.30
2022-08-09T03:46:30.477Z,4.53
2022-08-09T03:49:04.184Z,4.40
2022-08-09T03:51:55.418Z,4.25
2022-08-09T03:54:29.110Z,4.50
2022-08-09T03:56:58.295Z,4.38
2022-08-09T03:59:42.769Z,4.15
2022-08-09T04:02:11.662Z,4.38
2022-08-09T04:04:41.094Z,3.80
2022-08-09T04:07:12.938Z,3.92
2022-08-09T04:09:47.574Z,4.45
2022-08-09T04:12:30.519Z,3.95
2022-08-09T04:15:02.400Z,4.03
2022-08-09T04:17:39.356Z,4.65
2022-08-09T04:20:11.198Z,4.40
2022-08-09T04:22:41.302Z,4.25
2022-08-09T04:25:11.566Z,4.43
2022-08-09T04:27:42.836Z,3.92
2022-08-09T04:30:18.019Z,4.93
2022-08-09T04:32:47.744Z,4.72
2022-08-09T04:35:15.333Z,4.40
2022-08-09T04:37:46.239Z,5.15
2022-08-09T04:40:28.723Z,4.75
2022-08-09T04:43:01.151Z,4.82
2022-08-09T04:45:30.618Z,4.88
2022-08-09T04:48:04.180Z,5.15
2022-08-09T04:50:37.887Z,4.47
2022-08-09T04:53:11.692Z,5.03
2022-08-09T04:55:43.908Z,5.07
2022-08-09T04:58:27.447Z,4.82
2022-08-09T05:00:55.214Z,5.15
2022-08-09T05:03:41.227Z,4.40
2022-08-09T05:06:26.798Z,5.05
2022-08-09T05:08:54.445Z,4.88
2022-08-09T05:11:30.496Z,5.05
2022-08-09T05:13:59.385Z,5.60
2022-08-09T05:16:28.444Z,4.65
2022-08-09T05:18:59.936Z,4.75
2022-08-09T05:21:29.973Z,4.85
2022-08-09T05:24:04.702Z,4.13
2022-08-09T05:26:36.565Z,5.40
2022-08-09T05:29:04.478Z,5.00
2022-08-09T05:31:44.465Z,5.55
2022-08-09T05:34:17.086Z,5.00
2022-08-09T05:36:46.776Z,5.32
2022-08-09T05:39:28.518Z,5.72
2022-08-09T05:41:56.583Z,5.43
2022-08-09T05:44:29.104Z,6.15
2022-08-09T05:46:59.859Z,4.60
2022-08-09T05:50:23.579Z,4.95
2022-08-09T05:52:13.264Z,4.65
2022-08-09T05:54:40.168Z,4.70
2022-08-09T05:57:07.581Z,5.38
2022-08-09T05:59:39.461Z,4.45
2022-08-09T06:02:11.288Z,4.88
2022-08-09T06:04:44.527Z,5.35
2022-08-09T06:07:21.335Z,6.10
2022-08-09T06:10:02.316Z,4.57
2022-08-09T06:12:30.406Z,5.00
2022-08-09T06:15:01.108Z,4.72
2022-08-09T06:17:40.039Z,5.55
2022-08-09T06:20:08.159Z,4.88
2022-08-09T06:22:35.542Z,5.38
2022-08-09T06:25:02.372Z,5.70
2022-08-09T06:27:42.097Z,5.00
2022-08-09T06:30:13.908Z,4.85
2022-08-09T06:32:59.657Z,4.28
2022-08-09T06:35:56.106Z,5.50
2022-08-09T06:38:15.918Z,5.63
2022-08-09T06:40:42.878Z,5.60
2022-08-09T06:43:10.636Z,5.07
2022-08-09T06:46:06.833Z,4.90
2022-08-09T06:48:30.959Z,5.88
2022-08-09T06:50:59.151Z,4.85
2022-08-09T06:53:25.735Z,4.72
2022-08-09T06:55:54.683Z,5.15
2022-08-09T07:00:47.569Z,5.80
2022-08-09T07:01:08.251Z,5.15
2022-08-09T07:03:39.471Z,5.50
2022-08-09T07:06:19.639Z,5.60
2022-08-09T07:08:46.655Z,5.95
2022-08-09T07:11:17.705Z,5.38
2022-08-09T07:14:05.432Z,6.32
2022-08-09T07:16:42.478Z,4.50
2022-08-09T07:19:18.712Z,4.70
2022-08-09T07:21:57.303Z,4.40
2022-08-09T07:24:31.918Z,5.50
2022-08-09T07:27:11.108Z,4.93
2022-08-09T07:29:58.384Z,4.90
2022-08-09T07:32:33.009Z,5.05
2022-08-09T07:35:10.418Z,4.88
2022-08-09T07:37:44.378Z,4.55
2022-08-09T07:40:20.725Z,4.55
2022-08-09T07:42:58.979Z,5.32
2022-08-09T07:45:37.717Z,4.85
2022-08-09T07:48:05.487Z,4.78
2022-08-09T07:50:34.862Z,4.50
2022-08-09T07:53:04.526Z,4.45
2022-08-09T07:55:41.275Z,5.43
2022-08-09T07:58:18.991Z,4.63
2022-08-09T08:00:59.083Z,4.82
2022-08-09T08:03:33.266Z,4.70
2022-08-09T08:06:04.298Z,5.05
2022-08-09T08:09:01.225Z,4.60
2022-08-09T08:12:10.819Z,4.53
2022-08-09T08:14:06.492Z,4.75
2022-08-09T08:16:34.584Z,3.88
2022-08-09T08:19:03.241Z,4.32
2022-08-09T08:21:31.359Z,3.88
2022-08-09T08:24:01.004Z,4.13
2022-08-09T08:26:54.771Z,4.30
2022-08-09T08:29:28.011Z,4.47
2022-08-09T08:32:03.234Z,5.07
2022-08-09T08:34:33.618Z,4.28
2022-08-09T08:37:01.702Z,4.18
2022-08-09T08:39:28.831Z,4.38
2022-08-09T08:41:58.751Z,3.85
2022-08-09T08:44:29.702Z,3.80
2022-08-09T08:46:59.880Z,4.00
2022-08-09T08:49:46.371Z,3.25
2022-08-09T08:55:06.682Z,4.38
2022-08-09T08:57:34.831Z,4.15
2022-08-09T09:00:12.791Z,4.40
2022-08-09T09:02:52.606Z,3.70
2022-08-09T09:05:32.966Z,3.90
2022-08-09T09:08:30.922Z,3.88
2022-08-09T09:11:02.817Z,4.47
2022-08-09T09:13:42.180Z,3.75
2022-08-09T09:16:18.548Z,4.47
2022-08-09T09:19:15.610Z,4.05
2022-08-09T09:22:26.526Z,2.95
2022-08-09T09:25:27.747Z,3.92
2022-08-09T09:28:05.804Z,3.83
2022-08-09T09:30:47.419Z,3.47
2022-08-09T09:33:16.412Z,3.50
2022-08-09T09:36:19.934Z,3.65
2022-08-09T09:38:58.125Z,3.42
2022-08-09T09:41:32.678Z,3.53
2022-08-09T09:44:12.616Z,3.40
2022-08-09T09:46:50.388Z,3.75
2022-08-09T09:49:50.020Z,2.83
2022-08-09T09:52:36.903Z,3.30
2022-08-09T09:55:24.451Z,3.40
2022-08-09T09:58:12.516Z,3.08
2022-08-09T10:00:54.044Z,4.00
2022-08-09T10:04:00.096Z,3.40
2022-08-09T10:06:32.079Z,3.80
2022-08-09T10:09:02.955Z,3.58
2022-08-09T10:12:07.701Z,2.75
2022-08-09T10:14:33.209Z,3.63
2022-08-09T10:17:40.004Z,3.78
2022-08-09T10:22:37.446Z,3.88
2022-08-09T10:25:12.147Z,3.42
2022-08-09T10:27:56.636Z,3.83
2022-08-09T10:31:54.412Z,3.25
2022-08-09T10:33:44.846Z,3.38
2022-08-09T10:36:04.719Z,3.58
2022-08-09T10:38:54.405Z,3.00
2022-08-09T10:41:18.802Z,3.00
2022-08-09T10:43:58.644Z,3.58
2022-08-09T10:46:55.247Z,2.95
2022-08-09T10:49:50.302Z,3.20
2022-08-09T10:52:34.345Z,3.05
2022-08-09T10:55:19.965Z,3.53
2022-08-09T10:57:46.604Z,2.90
2022-08-09T11:00:41.691Z,3.47
2022-08-09T11:03:51.504Z,3.30
2022-08-09T11:06:15.952Z,3.13
2022-08-09T11:08:48.013Z,3.20
2022-08-09T11:11:23.206Z,2.80
2022-08-09T11:14:28.298Z,3.55
2022-08-09T11:16:57.006Z,3.17
2022-08-09T11:20:11.927Z,3.33
2022-08-09T11:22:40.776Z,3.67
2022-08-09T11:25:17.886Z,3.22
2022-08-09T11:28:04.068Z,4.10
2022-08-09T11:30:36.518Z,3.08
2022-08-09T11:33:19.527Z,3.78
2022-08-09T11:35:57.601Z,3.30
2022-08-09T11:38:32.721Z,3.63
2022-08-09T11:41:38.461Z,3.17
2022-08-09T11:44:07.644Z,3.90
2022-08-09T11:46:54.711Z,3.20
2022-08-09T11:50:56.623Z,3.03
2022-08-09T11:53:16.307Z,3.03
2022-08-09T11:55:53.306Z,3.15
2022-08-09T11:58:33.073Z,3.33
2022-08-09T12:01:37.234Z,2.65
2022-08-09T12:04:06.733Z,2.70
2022-08-09T12:06:37.283Z,3.33
2022-08-09T12:09:19.416Z,2.92
2022-08-09T12:12:02.609Z,3.33
2022-08-09T12:14:40.752Z,3.03
2022-08-09T12:17:34.676Z,2.95
2022-08-09T12:20:22.007Z,3.30
2022-08-09T12:22:55.701Z,3.20
2022-08-09T12:25:36.420Z,2.67
2022-08-09T12:29:12.231Z,2.97
2022-08-09T12:31:58.190Z,2.90
2022-08-09T12:34:16.909Z,2.60
2022-08-09T12:36:59.202Z,3.40
2022-08-09T12:39:39.464Z,2.88
2022-08-09T12:42:16.303Z,3.17
2022-08-09T12:44:46.486Z,2.67
2022-08-09T12:47:22.710Z,2.42
2022-08-09T12:50:08.870Z,2.90
2022-08-09T12:52:58.543Z,3.05
2022-08-09T12:56:15.779Z,2.90
2022-08-09T12:58:24.007Z,3.00
2022-08-09T13:00:51.191Z,2.80
2022-08-09T13:03:52.649Z,3.10
2022-08-09T13:06:34.394Z,2.88
2022-08-09T13:09:09.915Z,3.03
2022-08-09T13:11:42.541Z,3.10
2022-08-09T13:14:43.615Z,2.70
2022-08-09T13:17:16.038Z,2.70
2022-08-09T13:20:11.304Z,3.33
2022-08-09T13:23:00.392Z,2.83
2022-08-09T13:25:20.508Z,2.63
2022-08-09T13:27:48.723Z,2.38
2022-08-09T13:30:50.065Z,2.38
2022-08-09T13:33:21.572Z,2.83
2022-08-09T13:36:38.549Z,2.58
2022-08-09T13:38:57.506Z,2.45
2022-08-09T13:41:58.512Z,2.92
2022-08-09T13:44:13.657Z,2.60
2022-08-09T13:47:29.288Z,2.80
2022-08-09T13:49:39.694Z,3.25
2022-08-09T13:52:24.676Z,2.53
2022-08-09T13:54:59.227Z,2.72
2022-08-09T13:57:35.360Z,2.72
2022-08-09T14:00:13.809Z,2.90
2022-08-09T14:03:03.041Z,2.50
2022-08-09T14:05:59.122Z,2.72
2022-08-09T14:08:23.263Z,3.20
2022-08-09T14:10:52.146Z,2.42
2022-08-09T14:14:15.698Z,2.08
2022-08-09T14:16:11.464Z,2.10
2022-08-09T14:18:43.316Z,2.30
2022-08-09T14:21:17.494Z,2.40
2022-08-09T14:23:54.056Z,2.70
2022-08-09T14:26:24.021Z,2.08
2022-08-09T14:28:54.814Z,3.20
2022-08-09T14:31:23.654Z,2.25
2022-08-09T14:34:04.198Z,2.80
2022-08-09T14:36:39.665Z,2.72
2022-08-09T14:41:40.223Z,2.67
2022-08-09T14:44:09.569Z,3.13
2022-08-09T14:47:01.507Z,3.00
2022-08-09T14:49:27.506Z,2.50
2022-08-09T14:51:58.311Z,2.72
2022-08-09T14:54:27.937Z,2.40
2022-08-09T14:56:58.969Z,2.70
2022-08-09T14:59:40.404Z,2.50
2022-08-09T15:02:07.640Z,2.40
2022-08-09T15:04:35.560Z,2.42
2022-08-09T15:07:02.263Z,2.22
2022-08-09T15:10:03.602Z,2.50
2022-08-09T15:12:17.337Z,2.53
2022-08-09T15:14:45.450Z,2.65
2022-08-09T15:17:13.385Z,2.53
2022-08-09T15:19:59.332Z,2.20
2022-08-09T15:22:26.500Z,2.88
2022-08-09T15:24:53.717Z,2.58
2022-08-09T15:27:21.030Z,2.33
2022-08-09T15:30:57.552Z,2.42
2022-08-09T15:32:35.302Z,2.47
2022-08-09T15:35:02.408Z,2.42
2022-08-09T15:37:56.931Z,2.30
2022-08-09T15:40:36.119Z,2.55
2022-08-09T15:43:02.647Z,2.60
2022-08-09T15:45:30.094Z,2.75
2022-08-09T15:48:06.540Z,2.42
2022-08-09T15:50:43.741Z,2.38
2022-08-09T15:53:32.664Z,3.10
2022-08-09T15:56:21.015Z,2.83
2022-08-09T15:58:44.731Z,2.20
2022-08-09T16:01:13.459Z,2.75
2022-08-09T16:03:41.483Z,2.60
2022-08-09T16:06:29.375Z,2.70
2022-08-09T16:09:01.174Z,2.20
2022-08-09T16:11:30.901Z,2.35
2022-08-09T16:14:04.617Z,2.60
2022-08-09T16:16:36.993Z,2.45
2022-08-09T16:19:05.517Z,2.33
2022-08-09T16:21:34.137Z,2.65
2022-08-09T16:24:08.807Z,2.22
2022-08-09T16:26:55.119Z,2.30
2022-08-09T16:29:36.913Z,2.47
2022-08-09T16:32:17.598Z,2.40
2022-08-09T16:34:57.743Z,2.42
2022-08-09T16:37:54.550Z,2.63
2022-08-09T16:40:13.881Z,2.22
2022-08-09T16:42:48.041Z,2.30
2022-08-09T16:45:18.982Z,2.00
2022-08-09T16:48:41.195Z,2.08
2022-08-09T16:50:38.711Z,2.08
2022-08-09T16:53:05.889Z,2.42
2022-08-09T16:55:58.613Z,2.05
2022-08-09T16:58:19.607Z,2.10
2022-08-09T17:00:48.347Z,2.00
2022-08-09T17:03:21.292Z,2.28
2022-08-09T17:06:07.579Z,2.17
2022-08-09T17:08:46.754Z,2.38
2022-08-09T17:11:24.556Z,2.55
2022-08-09T17:14:01.657Z,2.40
2022-08-09T17:16:28.691Z,1.92
2022-08-09T17:18:55.288Z,1.90
2022-08-09T17:21:22.021Z,1.80
2022-08-09T17:24:21.271Z,2.08
2022-08-09T17:26:38.301Z,2.17
2022-08-09T17:29:05.027Z,1.95
2022-08-09T17:31:49.843Z,2.15
2022-08-09T17:34:20.211Z,1.90
2022-08-09T17:37:04.098Z,1.98
2022-08-09T17:39:52.520Z,2.25
2022-08-09T17:42:42.037Z,1.77
2022-08-09T17:45:06.557Z,2.10
2022-08-09T17:47:47.017Z,2.05
2022-08-09T17:50:17.247Z,2.20
2022-08-09T17:52:51.712Z,2.33
2022-08-09T17:55:18.280Z,2.00
2022-08-09T17:58:03.423Z,1.95
2022-08-09T18:00:33.460Z,2.13
2022-08-09T18:03:10.797Z,1.83
2022-08-09T18:05:43.580Z,2.08
2022-08-09T18:08:11.141Z,1.80
2022-08-09T18:10:39.987Z,2.13
2022-08-09T18:13:43.309Z,2.13
2022-08-09T18:16:07.583Z,1.73
2022-08-09T18:18:42.927Z,1.63
2022-08-09T18:21:23.166Z,1.85
2022-08-09T18:24:11.281Z,2.10
2022-08-09T18:26:46.385Z,2.13
2022-08-09T18:30:41.057Z,1.85
2022-08-09T18:32:00.840Z,2.03
2022-08-09T18:34:31.417Z,2.00
2022-08-09T18:36:58.507Z,1.75
2022-08-09T18:39:25.715Z,2.30
2022-08-09T18:41:59.062Z,1.88
2022-08-09T18:44:26.061Z,2.42
2022-08-09T18:47:05.402Z,2.10
2022-08-09T18:49:41.667Z,1.90
2022-08-09T18:52:14.008Z,1.95
2022-08-09T18:54:49.575Z,2.33
2022-08-09T18:57:19.795Z,2.08
2022-08-09T18:59:56.440Z,2.00
2022-08-09T19:02:30.721Z,2.08
2022-08-09T19:05:14.566Z,1.92
2022-08-09T19:08:03.813Z,2.42
2022-08-09T19:10:37.160Z,1.77
2022-08-09T19:13:20.273Z,2.05
2022-08-09T19:15:53.133Z,1.80
2022-08-09T19:18:34.042Z,1.80
2022-08-09T19:21:09.849Z,1.80
2022-08-09T19:24:32.920Z,2.10
2022-08-09T19:26:35.053Z,1.98
2022-08-09T19:29:15.216Z,1.90
2022-08-09T19:31:46.225Z,2.20
2022-08-09T19:34:21.745Z,2.20
2022-08-09T19:36:54.845Z,2.15
2022-08-09T19:39:43.095Z,1.90
2022-08-09T19:42:09.095Z,1.75
2022-08-09T19:44:43.306Z,1.58
2022-08-09T19:47:11.117Z,2.60
2022-08-09T19:50:08.930Z,2.90
2022-08-09T19:52:26.311Z,2.17
2022-08-09T19:54:52.848Z,2.10
2022-08-09T19:57:19.437Z,1.83
2022-08-09T19:59:59.942Z,2.63
2022-08-09T20:04:16.899Z,1.90
2022-08-09T20:05:20.503Z,2.03
2022-08-09T20:07:59.231Z,1.80
2022-08-09T20:10:34.905Z,1.70
2022-08-09T20:13:05.029Z,1.83
2022-08-09T20:16:34.768Z,2.05
2022-08-09T20:18:19.750Z,1.80
2022-08-09T20:20:47.030Z,1.52
2022-08-09T20:23:13.542Z,1.70
2022-08-09T20:25:52.524Z,1.95
2022-08-09T20:28:27.597Z,1.92
2022-08-09T20:31:05.158Z,2.00
2022-08-09T20:33:38.874Z,1.80
2022-08-09T20:36:10.263Z,1.98
2022-08-09T20:39:18.677Z,1.95
2022-08-09T20:41:34.901Z,2.83
2022-08-09T20:44:10.447Z,2.00
2022-08-09T20:46:43.030Z,2.78
2022-08-09T20:49:16.038Z,2.17
2022-08-09T20:51:45.341Z,2.20
2022-08-09T20:54:18.104Z,2.13
2022-08-09T20:56:49.531Z,1.70
2022-08-09T21:02:08.161Z,2.20
2022-08-09T21:05:51.341Z,2.22
2022-08-09T21:07:21.200Z,1.83
2022-08-09T21:09:58.485Z,2.22
2022-08-09T21:15:23.662Z,2.30
2022-08-09T21:18:24.062Z,1.98
2022-08-09T21:20:54.063Z,2.08
2022-08-09T21:23:21.568Z,2.05
2022-08-09T21:25:59.073Z,2.28
2022-08-09T21:28:35.075Z,2.22
2022-08-09T21:31:16.441Z,2.10
2022-08-09T21:33:50.840Z,2.47
2022-08-09T21:36:20.261Z,2.00
2022-08-09T21:38:51.011Z,1.77
2022-08-09T21:42:05.929Z,2.03
2022-08-09T21:44:12.075Z,1.85
2022-08-09T21:46:42.287Z,1.98
2022-08-09T21:49:12.451Z,2.08
2022-08-09T21:51:43.909Z,1.55
2022-08-09T21:54:10.700Z,1.92
2022-08-09T21:56:44.690Z,1.95
2022-08-09T21:59:20.485Z,1.98
2022-08-09T22:02:01.246Z,1.80
2022-08-09T22:04:55.617Z,1.90
2022-08-09T22:07:35.435Z,2.10
2022-08-09T22:10:03.568Z,1.88
2022-08-09T22:12:31.361Z,1.92
2022-08-09T22:14:58.551Z,1.65
2022-08-09T22:17:25.291Z,1.90
2022-08-09T22:19:58.983Z,1.70
2022-08-09T22:22:27.969Z,1.83
2022-08-09T22:26:06.493Z,1.70
2022-08-09T22:27:42.163Z,2.30
2022-08-09T22:30:09.759Z,2.13
2022-08-09T22:32:37.530Z,1.98
2022-08-09T22:35:59.910Z,2.42
2022-08-09T22:38:06.745Z,2.00
2022-08-09T22:40:35.190Z,1.98
2022-08-09T22:43:16.057Z,2.25
2022-08-09T22:48:10.962Z,2.10
2022-08-09T22:48:36.657Z,2.10
2022-08-09T22:51:10.316Z,2.20
2022-08-09T22:53:44.424Z,2.60
2022-08-09T22:56:31.097Z,2.10
2022-08-09T22:59:05.822Z,2.10
2022-08-09T23:01:48.826Z,2.08
2022-08-09T23:04:15.387Z,2.63
2022-08-09T23:07:02.672Z,2.40
2022-08-09T23:09:29.219Z,2.13
2022-08-09T23:11:55.683Z,2.75
2022-08-09T23:14:36.288Z,2.30
2022-08-09T23:17:04.415Z,2.20
2022-08-09T23:19:30.883Z,2.08
2022-08-09T23:22:17.324Z,2.40
2022-08-09T23:24:44.024Z,2.60
2022-08-09T23:27:15.527Z,2.15
2022-08-09T23:29:41.989Z,2.10
2022-08-09T23:32:08.648Z,2.58
2022-08-09T23:34:35.191Z,2.72
2022-08-09T23:37:01.726Z,2.20
2022-08-09T23:39:28.268Z,2.92
2022-08-09T23:41:54.831Z,2.50
2022-08-09T23:44:22.175Z,3.13
2022-08-09T23:46:55.972Z,2.30
2022-08-09T23:49:25.150Z,2.60
2022-08-09T23:51:53.218Z,2.80
2022-08-09T23:54:20.481Z,2.53
2022-08-09T23:56:54.860Z,2.67
2022-08-09T23:59:25.107Z,2.65
